Time;durP1;ratioP1;P1;durP2;ratioP2;P2;SDS_P1;SDS_P2;PMS_P1;PMS_P2;Temp;Humidity;BMP_temperature;BMP_pressure;BME280_temperature;BME280_humidity;BME280_pressure;Samples;Min_cycle;Max_cycle;Signal;HPM_P1;HPM_P2
2022/11/30 00:01:27;;;;;;;33.53;27.67;;;;;;;7.04;100.00;100615.66;5059690;28;20254;-75
2022/11/30 00:03:56;;;;;;;34.60;29.83;;;;;;;7.02;100.00;100617.38;5054968;28;20180;-75
2022/11/30 00:06:22;;;;;;;32.17;28.67;;;;;;;7.00;100.00;100614.78;5043272;28;20647;-73
2022/11/30 00:08:57;;;;;;;31.57;27.17;;;;;;;7.02;100.00;100612.22;5057910;28;20209;-77
2022/11/30 00:11:24;;;;;;;30.53;26.90;;;;;;;7.02;100.00;100614.78;5062602;28;20360;-76
2022/11/30 00:13:50;;;;;;;34.93;28.97;;;;;;;7.05;100.00;100612.25;5040850;28;20202;-74
2022/11/30 00:16:15;;;;;;;32.33;28.73;;;;;;;7.07;100.00;100612.25;5059921;28;20193;-75
2022/11/30 00:18:41;;;;;;;34.13;28.87;;;;;;;7.09;100.00;100615.72;5063560;28;20628;-75
2022/11/30 00:21:10;;;;;;;31.30;27.87;;;;;;;7.09;100.00;100605.41;5057262;28;20201;-76
2022/11/30 00:23:38;;;;;;;33.37;29.17;;;;;;;7.11;100.00;100606.31;5063694;28;20221;-74
2022/11/30 00:26:08;;;;;;;34.47;28.73;;;;;;;7.11;100.00;100607.16;5047780;28;20184;-74
2022/11/30 00:28:35;;;;;;;32.73;28.83;;;;;;;7.11;100.00;100601.16;5090349;28;20193;-77
2022/11/30 00:31:06;;;;;;;33.33;28.83;;;;;;;7.11;100.00;100598.59;5084072;28;20591;-74
2022/11/30 00:33:33;;;;;;;33.50;27.77;;;;;;;7.08;100.00;100599.44;5064440;28;20174;-74
2022/11/30 00:36:01;;;;;;;33.47;28.00;;;;;;;7.08;100.00;100604.56;5066222;28;20184;-76
2022/11/30 00:38:27;;;;;;;33.17;29.47;;;;;;;7.07;100.00;100607.13;5047911;28;20642;-74
2022/11/30 00:40:53;;;;;;;28.80;25.80;;;;;;;7.06;100.00;100600.22;5066232;28;20197;-74
2022/11/30 00:43:18;;;;;;;29.37;25.73;;;;;;;7.06;100.00;100603.69;5065211;28;20178;-75
2022/11/30 00:45:44;;;;;;;29.73;25.93;;;;;;;7.04;100.00;100605.38;5069510;28;20184;-75
2022/11/30 00:48:09;;;;;;;29.07;25.83;;;;;;;7.04;100.00;100605.38;5064634;28;20179;-74
2022/11/30 00:50:34;;;;;;;30.10;26.80;;;;;;;7.03;100.00;100610.53;5064666;28;20214;-75
2022/11/30 00:52:59;;;;;;;29.67;26.57;;;;;;;7.05;100.00;100612.25;5045658;28;20185;-75
2022/11/30 00:55:26;;;;;;;28.90;25.90;;;;;;;7.05;100.00;100612.25;5045886;28;20208;-74
2022/11/30 00:57:51;;;;;;;28.20;25.20;;;;;;;7.06;100.00;100610.53;5060368;28;20220;-75
2022/11/30 01:00:17;;;;;;;29.53;25.53;;;;;;;7.07;100.00;100620.84;5061961;28;20297;-75
2022/11/30 01:02:42;;;;;;;29.53;26.53;;;;;;;7.09;100.00;100620.88;5061653;28;20200;-75
2022/11/30 01:05:08;;;;;;;30.47;27.27;;;;;;;7.10;100.00;100620.03;5061476;28;20213;-75
2022/11/30 01:07:33;;;;;;;31.83;28.27;;;;;;;7.09;100.00;100623.44;5061812;28;20596;-75
2022/11/30 01:09:58;;;;;;;29.33;26.17;;;;;;;7.09;100.00;100620.88;5061066;28;20295;-75
2022/11/30 01:12:24;;;;;;;30.60;27.30;;;;;;;7.09;100.00;100616.59;5045460;28;20200;-74
2022/11/30 01:14:49;;;;;;;28.60;25.50;;;;;;;7.10;100.00;100625.16;5040820;28;20185;-76
2022/11/30 01:17:14;;;;;;;28.47;25.47;;;;;;;7.10;100.00;100630.31;5044955;28;20272;-74
2022/11/30 01:19:39;;;;;;;33.07;25.43;;;;;;;7.10;100.00;100622.59;5057964;28;20215;-75
2022/11/30 01:22:05;;;;;;;28.30;25.10;;;;;;;7.08;100.00;100625.16;5060456;28;20186;-73
2022/11/30 01:24:30;;;;;;;28.40;25.40;;;;;;;7.07;100.00;100623.44;5058432;28;20270;-74
2022/11/30 01:26:55;;;;;;;28.67;25.57;;;;;;;7.08;100.00;100632.00;5056706;28;20833;-75
2022/11/30 01:29:21;;;;;;;27.73;24.80;;;;;;;7.07;100.00;100626.00;5057175;28;20195;-75
2022/11/30 01:31:46;;;;;;;29.30;26.10;;;;;;;7.10;100.00;100632.88;5057244;28;20200;-77
2022/11/30 01:34:11;;;;;;;28.60;25.53;;;;;;;7.09;100.00;100618.28;5041611;28;20571;-74
2022/11/30 01:36:37;;;;;;;29.70;26.53;;;;;;;7.10;100.00;100623.47;5078814;28;20193;-74
2022/11/30 01:39:07;;;;;;;29.00;26.03;;;;;;;7.09;100.00;100631.16;5056173;28;20299;-74
2022/11/30 01:41:32;;;;;;;27.13;24.40;;;;;;;7.10;100.00;100630.31;5058403;28;20246;-77
2022/11/30 01:44:03;;;;;;;27.83;25.03;;;;;;;7.11;100.00;100626.91;5060693;28;20215;-75
2022/11/30 01:46:31;;;;;;;28.43;25.43;;;;;;;7.12;100.00;100626.06;5053121;28;20194;-75
2022/11/30 01:49:09;;;;;;;27.00;23.63;;;;;;;7.13;100.00;100630.34;5060207;28;20789;-74
2022/11/30 01:51:41;;;;;;;28.13;25.33;;;;;;;7.12;100.00;100632.03;5061985;28;20253;-74
2022/11/30 01:54:09;;;;;;;29.43;26.23;;;;;;;7.13;100.00;100631.19;5036234;28;20495;-76
2022/11/30 01:56:36;;;;;;;28.17;25.30;;;;;;;7.12;100.00;100633.78;5054517;28;20189;-74
2022/11/30 01:59:02;;;;;;;27.97;25.17;;;;;;;7.13;100.00;100635.50;5069455;28;20202;-74
2022/11/30 02:01:28;;;;;;;29.53;26.63;;;;;;;7.10;100.00;100636.34;5062537;28;20220;-75
2022/11/30 02:04:05;;;;;;;27.40;24.50;;;;;;;7.12;100.00;100633.78;5063496;28;20272;-76
2022/11/30 02:06:30;;;;;;;29.47;26.37;;;;;;;7.12;100.00;100641.50;5064114;28;20286;-75
2022/11/30 02:08:56;;;;;;;29.43;25.77;;;;;;;7.10;100.00;100638.03;5062325;28;20374;-76
2022/11/30 02:11:23;;;;;;;27.87;24.97;;;;;;;7.09;100.00;100642.34;5074913;28;20626;-75
2022/11/30 02:14:00;;;;;;;27.63;24.77;;;;;;;7.12;100.00;100638.91;5063806;28;20288;-75
2022/11/30 02:16:34;;;;;;;29.37;26.10;;;;;;;7.08;100.00;100638.03;5060052;28;20725;-75
2022/11/30 02:19:12;;;;;;;27.47;24.63;;;;;;;7.07;100.00;100643.13;5061191;28;20196;-76
2022/11/30 02:21:46;;;;;;;29.70;25.93;;;;;;;7.07;100.00;100638.88;5046654;28;20236;-75
2022/11/30 02:24:37;;;;;;;31.23;27.27;;;;;;;7.09;100.00;100636.31;5061699;28;20277;-75
2022/11/30 02:27:31;;;;;;;31.03;27.73;;;;;;;7.05;100.00;100634.53;5078870;28;20194;-77
2022/11/30 02:30:08;;;;;;;36.27;27.97;;;;;;;7.04;100.00;100643.09;5051299;28;20228;-75
2022/11/30 02:32:42;;;;;;;31.37;26.53;;;;;;;7.04;100.00;100632.81;5064496;28;20174;-74
2022/11/30 02:35:09;;;;;;;36.37;28.33;;;;;;;7.03;100.00;100628.53;5064578;28;20258;-75
2022/11/30 02:37:36;;;;;;;33.23;28.30;;;;;;;7.00;100.00;100632.78;5066090;28;20176;-73
2022/11/30 02:40:07;;;;;;;33.77;26.33;;;;;;;7.01;100.00;100637.09;5064350;28;20216;-74
2022/11/30 02:42:32;;;;;;;34.83;27.87;;;;;;;6.98;100.00;100631.91;5066683;28;20181;-74
2022/11/30 02:44:57;;;;;;;33.23;27.40;;;;;;;6.97;100.00;100632.75;5065465;28;20190;-74
2022/11/30 02:47:42;;;;;;;34.93;27.70;;;;;;;6.96;100.00;100638.75;5082567;28;20634;-73
2022/11/30 02:50:22;;;;;;;37.83;29.70;;;;;;;6.94;100.00;100632.72;5065103;28;20763;-73
2022/11/30 02:52:49;;;;;;;37.50;28.77;;;;;;;6.94;100.00;100639.59;5065141;28;20174;-74
2022/11/30 02:55:17;;;;;;;30.63;26.07;;;;;;;6.93;100.00;100637.84;5064068;28;20216;-75
2022/11/30 02:57:42;;;;;;;34.80;27.83;;;;;;;6.96;100.00;100638.75;5058967;28;20201;-75
2022/11/30 03:00:09;;;;;;;31.77;26.03;;;;;;;6.95;100.00;100637.03;5057909;28;20221;-75
2022/11/30 03:02:35;;;;;;;35.63;27.83;;;;;;;6.96;100.00;100636.16;5045991;28;20192;-74
2022/11/30 03:05:01;;;;;;;36.77;28.07;;;;;;;6.97;100.00;100637.03;5047322;28;20209;-74
2022/11/30 03:07:26;;;;;;;35.33;27.07;;;;;;;6.95;100.00;100639.59;5046199;28;20190;-73
2022/11/30 03:09:52;;;;;;;37.90;28.93;;;;;;;6.94;100.00;100643.00;5056911;28;20228;-73
2022/11/30 03:12:17;;;;;;;39.93;28.60;;;;;;;6.95;100.00;100639.59;5061976;28;20272;-74
2022/11/30 03:14:42;;;;;;;36.37;28.20;;;;;;;6.96;100.00;100645.59;5056591;28;20196;-75
2022/11/30 03:17:08;;;;;;;40.13;29.47;;;;;;;6.92;100.00;100647.28;5067038;28;20616;-74
2022/11/30 03:19:33;;;;;;;37.60;26.93;;;;;;;6.92;100.00;100646.41;5063961;28;20231;-75
2022/11/30 03:21:59;;;;;;;35.67;28.73;;;;;;;6.93;100.00;100636.13;5044736;28;20279;-75
2022/11/30 03:24:24;;;;;;;34.07;26.97;;;;;;;6.92;100.00;100644.69;5070044;28;20637;-74
2022/11/30 03:26:50;;;;;;;41.47;28.20;;;;;;;6.89;100.00;100647.22;5063657;28;20198;-74
2022/11/30 03:29:15;;;;;;;36.00;26.73;;;;;;;6.86;100.00;100642.91;5063345;28;20195;-74
2022/11/30 03:31:41;;;;;;;37.57;27.00;;;;;;;6.90;100.00;100642.97;5062186;28;20220;-72
2022/11/30 03:34:06;;;;;;;36.80;28.37;;;;;;;6.83;100.00;100640.31;5061959;28;20242;-76
2022/11/30 03:36:31;;;;;;;38.93;27.50;;;;;;;6.84;100.00;100638.59;5059598;28;20199;-76
2022/11/30 03:38:57;;;;;;;34.80;28.20;;;;;;;6.80;100.00;100642.84;5062651;28;20291;-74
2022/11/30 03:41:22;;;;;;;36.90;28.37;;;;;;;6.79;100.00;100650.53;5067278;28;20217;-75
2022/11/30 03:43:47;;;;;;;39.20;28.90;;;;;;;6.78;100.00;100653.97;5046442;28;20205;-75
2022/11/30 03:46:13;;;;;;;37.73;28.53;;;;;;;6.75;100.00;100641.94;5057006;28;20218;-74
2022/11/30 03:48:42;;;;;;;39.13;29.73;;;;;;;6.74;100.00;100642.78;5044833;28;20197;-73
2022/11/30 03:51:09;;;;;;;42.93;29.10;;;;;;;6.71;100.00;100646.19;5072410;28;20243;-75
2022/11/30 03:53:35;;;;;;;38.30;28.53;;;;;;;6.71;100.00;100642.72;5055200;28;20187;-74
2022/11/30 03:56:03;;;;;;;40.53;29.07;;;;;;;6.69;100.00;100644.41;5063702;28;20333;-74
2022/11/30 03:58:29;;;;;;;43.17;30.53;;;;;;;6.67;100.00;100648.66;5061006;28;20275;-73
2022/11/30 04:01:11;;;;;;;41.77;29.07;;;;;;;6.66;100.00;100647.81;5058864;28;20693;-75
2022/11/30 04:03:37;;;;;;;42.93;31.43;;;;;;;6.66;100.00;100641.78;5057711;28;20258;-75
2022/11/30 04:06:04;;;;;;;43.80;30.40;;;;;;;6.67;100.00;100646.97;5043488;28;20188;-75
2022/11/30 04:08:30;;;;;;;42.67;30.90;;;;;;;6.67;100.00;100648.66;5045638;28;20193;-74
2022/11/30 04:10:57;;;;;;;42.83;30.97;;;;;;;6.66;100.00;100646.94;5062429;28;20833;-75
2022/11/30 04:13:23;;;;;;;44.43;30.93;;;;;;;6.66;100.00;100655.53;5056767;28;20192;-75
2022/11/30 04:15:50;;;;;;;45.43;31.20;;;;;;;6.66;100.00;100652.09;5046277;28;20228;-74
2022/11/30 04:18:18;;;;;;;42.53;30.27;;;;;;;6.66;100.00;100655.53;5044380;28;20205;-74
2022/11/30 04:20:44;;;;;;;40.07;29.03;;;;;;;6.67;100.00;100646.97;5062852;28;20289;-75
2022/11/30 04:23:11;;;;;;;42.40;29.33;;;;;;;6.68;100.00;100653.84;5064686;28;20242;-74
2022/11/30 04:25:38;;;;;;;40.70;29.77;;;;;;;6.69;100.00;100646.97;5065287;28;20633;-74
2022/11/30 04:28:03;;;;;;;38.90;28.63;;;;;;;6.69;100.00;100654.69;5063026;28;20182;-75
2022/11/30 04:30:28;;;;;;;42.67;30.53;;;;;;;6.68;100.00;100652.97;5067394;28;20224;-74
2022/11/30 04:32:54;;;;;;;42.63;31.37;;;;;;;6.70;100.00;100656.44;5049034;28;20180;-75
2022/11/30 04:35:19;;;;;;;40.97;30.20;;;;;;;6.69;100.00;100655.59;5048317;28;20172;-74
2022/11/30 04:37:44;;;;;;;41.30;30.33;;;;;;;6.69;100.00;100657.28;5065226;28;20183;-76
2022/11/30 04:40:11;;;;;;;36.87;29.90;;;;;;;6.67;100.00;100644.41;5046248;28;20216;-74
2022/11/30 04:42:37;;;;;;;39.63;29.27;;;;;;;6.68;100.00;100648.72;5063752;28;20251;-74
2022/11/30 04:45:02;;;;;;;37.57;29.20;;;;;;;6.70;100.00;100646.13;5047444;28;20186;-77
2022/11/30 04:47:28;;;;;;;39.40;29.63;;;;;;;6.71;100.00;100650.44;5079701;28;20211;-74
2022/11/30 04:49:53;;;;;;;40.90;30.73;;;;;;;6.72;100.00;100649.59;5048072;28;20562;-75
2022/11/30 04:52:19;;;;;;;39.50;29.90;;;;;;;6.73;100.00;100650.47;5067411;28;20211;-77
2022/11/30 04:54:44;;;;;;;40.10;30.27;;;;;;;6.71;100.00;100642.72;5057511;28;20240;-74
2022/11/30 04:57:09;;;;;;;33.80;27.87;;;;;;;6.71;100.00;100647.88;5040546;28;20194;-75
2022/11/30 04:59:35;;;;;;;35.97;29.43;;;;;;;6.70;100.00;100656.44;5083016;28;20218;-76
2022/11/30 05:02:00;;;;;;;35.90;28.97;;;;;;;6.69;100.00;100658.16;5044887;28;20725;-74
2022/11/30 05:04:25;;;;;;;38.57;30.60;;;;;;;6.69;100.00;100646.97;5061537;28;20178;-75
2022/11/30 05:06:51;;;;;;;38.13;30.00;;;;;;;6.70;100.00;100647.03;5064463;28;20560;-74
2022/11/30 05:09:16;;;;;;;36.77;29.50;;;;;;;6.70;100.00;100647.03;5043333;28;20180;-74
2022/11/30 05:11:42;;;;;;;33.50;28.07;;;;;;;6.70;100.00;100652.16;5068696;28;20230;-74
2022/11/30 05:14:07;;;;;;;37.57;29.27;;;;;;;6.68;100.00;100655.53;5062952;28;20189;-74
2022/11/30 05:16:32;;;;;;;37.67;30.70;;;;;;;6.72;100.00;100659.88;5063176;28;20189;-75
2022/11/30 05:18:58;;;;;;;39.27;30.77;;;;;;;6.71;100.00;100663.31;5057550;28;20203;-74
2022/11/30 05:21:23;;;;;;;34.03;28.50;;;;;;;6.70;100.00;100666.72;5058685;28;20204;-75
2022/11/30 05:23:48;;;;;;;38.07;29.80;;;;;;;6.69;100.00;100657.28;5050824;28;20727;-75
2022/11/30 05:26:14;;;;;;;29.93;26.40;;;;;;;6.68;100.00;100659.00;5060047;28;20720;-75
2022/11/30 05:28:40;;;;;;;34.60;29.23;;;;;;;6.70;100.00;100665.03;5060318;28;20249;-75
2022/11/30 05:31:05;;;;;;;34.30;27.17;;;;;;;6.71;100.00;100656.47;5061788;28;20609;-75
2022/11/30 05:33:32;;;;;;;32.90;28.70;;;;;;;6.70;100.00;100661.56;5060482;28;20234;-75
2022/11/30 05:35:57;;;;;;;33.43;28.17;;;;;;;6.71;100.00;100664.19;5058787;28;20243;-75
2022/11/30 05:38:22;;;;;;;33.37;27.93;;;;;;;6.72;100.00;100659.88;5060527;28;20235;-75
2022/11/30 05:40:48;;;;;;;37.53;29.70;;;;;;;6.70;100.00;100661.56;5062446;28;20216;-74
2022/11/30 05:43:13;;;;;;;36.63;27.80;;;;;;;6.69;100.00;100667.56;5068057;28;20189;-74
2022/11/30 05:45:39;;;;;;;31.10;27.53;;;;;;;6.71;100.00;100666.75;5067038;28;20188;-75
2022/11/30 05:48:04;;;;;;;31.27;26.67;;;;;;;6.71;100.00;100668.44;5076501;28;20196;-75
2022/11/30 05:50:30;;;;;;;31.23;26.63;;;;;;;6.73;100.00;100676.22;5093074;28;20204;-75
2022/11/30 05:52:55;;;;;;;30.87;26.50;;;;;;;6.75;100.00;100674.50;5081045;28;20193;-74
2022/11/30 05:55:25;;;;;;;34.03;28.70;;;;;;;6.73;100.00;100676.22;5079420;28;20977;-75
2022/11/30 05:57:51;;;;;;;29.73;26.07;;;;;;;6.72;100.00;100672.75;5074458;28;20670;-74
2022/11/30 06:00:17;;;;;;;29.07;25.43;;;;;;;6.73;100.00;100674.47;5073085;28;20232;-74
2022/11/30 06:02:42;;;;;;;26.80;23.90;;;;;;;6.74;100.00;100675.34;5087789;28;20389;-74
2022/11/30 06:05:08;;;;;;;27.03;24.13;;;;;;;6.73;100.00;100676.22;5052294;28;20221;-75
2022/11/30 06:07:33;;;;;;;28.37;24.47;;;;;;;6.73;100.00;100676.22;5066274;28;20612;-74
2022/11/30 06:09:59;;;;;;;30.53;26.23;;;;;;;6.71;100.00;100671.91;5073611;28;20194;-73
2022/11/30 06:12:24;;;;;;;27.37;24.33;;;;;;;6.71;100.00;100664.19;5071562;28;20188;-74
2022/11/30 06:14:52;;;;;;;30.30;26.27;;;;;;;6.73;100.00;100669.34;5057820;28;20186;-74
2022/11/30 06:17:18;;;;;;;30.00;25.87;;;;;;;6.73;100.00;100664.19;5046863;28;20294;-73
2022/11/30 06:19:43;;;;;;;28.63;24.37;;;;;;;6.73;100.00;100673.63;5046061;28;21784;-74
2022/11/30 06:22:08;;;;;;;27.97;24.97;;;;;;;6.67;100.00;100672.69;5045537;28;20189;-73
2022/11/30 06:24:34;;;;;;;28.20;24.40;;;;;;;6.66;100.00;100670.97;5049721;28;21322;-75
2022/11/30 06:26:59;;;;;;;29.43;24.53;;;;;;;6.69;100.00;100670.13;5090435;28;20274;-74
2022/11/30 06:29:24;;;;;;;28.73;25.73;;;;;;;6.65;100.00;100669.22;5079625;28;20247;-74
2022/11/30 06:31:50;;;;;;;27.30;24.43;;;;;;;6.64;100.00;100662.38;5055778;28;20358;-74
2022/11/30 06:34:15;;;;;;;27.60;24.67;;;;;;;6.61;100.00;100662.31;5074106;28;20223;-75
2022/11/30 06:36:41;;;;;;;27.40;24.60;;;;;;;6.60;100.00;100668.31;5058835;28;20196;-74
2022/11/30 06:39:08;;;;;;;26.33;23.67;;;;;;;6.55;100.00;100668.25;5068188;28;20196;-76
2022/11/30 06:41:33;;;;;;;26.07;23.37;;;;;;;6.53;100.00;100664.78;5060834;28;20206;-74
2022/11/30 06:43:59;;;;;;;25.27;22.67;;;;;;;6.51;100.00;100660.47;5053763;28;20584;-75
2022/11/30 06:46:25;;;;;;;24.13;21.63;;;;;;;6.49;100.00;100665.59;5050694;28;20229;-75
2022/11/30 06:48:51;;;;;;;23.50;21.20;;;;;;;6.48;100.00;100670.72;5046747;28;20185;-74
2022/11/30 06:51:17;;;;;;;22.43;20.20;;;;;;;6.48;100.00;100665.56;5070216;28;20208;-75
2022/11/30 06:53:43;;;;;;;23.67;21.27;;;;;;;6.47;100.00;100675.00;5066749;28;20187;-75
2022/11/30 06:56:09;;;;;;;24.10;21.77;;;;;;;6.48;100.00;100675.84;5064667;28;21166;-74
2022/11/30 06:58:36;;;;;;;23.63;21.33;;;;;;;6.47;100.00;100677.56;5069015;28;20216;-75
2022/11/30 07:01:04;;;;;;;23.17;20.93;;;;;;;6.49;100.00;100672.44;5075622;28;21049;-75
2022/11/30 07:03:29;;;;;;;23.93;21.53;;;;;;;6.49;100.00;100678.47;5071523;28;20218;-75
2022/11/30 07:05:54;;;;;;;22.80;20.33;;;;;;;6.46;100.00;100680.97;5068988;28;21973;-75
2022/11/30 07:08:20;;;;;;;21.87;19.77;;;;;;;6.49;100.00;100678.47;5072235;28;20204;-74
2022/11/30 07:10:49;;;;;;;21.10;19.03;;;;;;;6.52;100.00;100682.78;5058795;28;20652;-74
2022/11/30 07:13:18;;;;;;;22.20;20.00;;;;;;;6.50;100.00;100682.75;5058713;28;20187;-74
2022/11/30 07:15:47;;;;;;;20.07;17.90;;;;;;;6.48;100.00;100679.31;5078291;28;20222;-74
2022/11/30 07:18:12;;;;;;;20.53;18.53;;;;;;;6.47;100.00;100677.56;5056405;28;20189;-75
2022/11/30 07:20:38;;;;;;;20.70;18.57;;;;;;;6.46;100.00;100682.66;5079925;28;20238;-75
2022/11/30 07:26:08;;;;;;;19.83;17.90;;;;;;;6.43;100.00;100686.06;5069229;28;20246;-74
2022/11/30 07:28:36;;;;;;;20.27;18.20;;;;;;;6.42;100.00;100688.63;5054051;28;20204;-74
2022/11/30 07:31:16;;;;;;;19.00;17.20;;;;;;;6.41;100.00;100695.47;5085787;28;20306;-75
2022/11/30 07:33:42;;;;;;;20.00;18.10;;;;;;;6.41;100.00;100700.59;5077172;28;20248;-74
2022/11/30 07:36:08;;;;;;;20.13;18.10;;;;;;;6.38;100.00;100688.59;5074175;28;20204;-75
2022/11/30 07:38:33;;;;;;;20.33;18.40;;;;;;;6.38;100.00;100687.69;5067748;28;20305;-75
2022/11/30 07:40:58;;;;;;;20.00;18.00;;;;;;;6.39;100.00;100698.03;5046495;28;20233;-74
2022/11/30 07:43:23;;;;;;;20.97;18.87;;;;;;;6.40;100.00;100693.72;5060178;28;20191;-76
2022/11/30 07:45:52;;;;;;;19.10;17.20;;;;;;;6.39;100.00;100698.03;5058029;28;20201;-74
2022/11/30 07:48:18;;;;;;;19.97;18.13;;;;;;;6.42;100.00;100702.34;5059679;28;20192;-75
2022/11/30 07:50:44;;;;;;;19.73;17.83;;;;;;;6.44;100.00;100699.78;5051773;28;20928;-76
2022/11/30 07:53:09;;;;;;;19.50;17.60;;;;;;;6.44;100.00;100705.81;5059401;28;20184;-74
2022/11/30 07:55:34;;;;;;;20.07;18.23;;;;;;;6.44;100.00;100704.91;5058615;28;20201;-77
2022/11/30 07:58:00;;;;;;;20.77;18.73;;;;;;;6.43;100.00;100704.06;5060443;28;20198;-74
2022/11/30 08:00:25;;;;;;;20.10;18.10;;;;;;;6.43;100.00;100706.66;5060109;28;20823;-74
2022/11/30 08:02:51;;;;;;;20.23;18.30;;;;;;;6.45;100.00;100704.09;5055681;28;20213;-74
2022/11/30 08:05:16;;;;;;;20.03;17.97;;;;;;;6.47;100.00;100704.97;5046907;28;20237;-74
2022/11/30 08:07:41;;;;;;;19.77;17.83;;;;;;;6.48;100.00;100714.41;5075246;28;20372;-75
2022/11/30 08:10:07;;;;;;;21.30;19.20;;;;;;;6.47;100.00;100713.56;5062972;28;20203;-75
2022/11/30 08:12:33;;;;;;;21.53;19.53;;;;;;;6.48;100.00;100712.72;5059732;28;20233;-75
2022/11/30 08:14:58;;;;;;;20.63;18.57;;;;;;;6.50;100.00;100710.16;5046702;28;20174;-74
2022/11/30 08:17:23;;;;;;;19.67;17.77;;;;;;;6.52;100.00;100714.47;5066171;28;20192;-74
2022/11/30 08:19:48;;;;;;;20.20;18.33;;;;;;;6.54;100.00;100717.09;5070469;28;20217;-74
2022/11/30 08:22:14;;;;;;;20.87;18.80;;;;;;;6.55;100.00;100699.09;5076387;28;20173;-75
2022/11/30 08:24:39;;;;;;;19.70;17.87;;;;;;;6.60;100.00;100703.44;5068175;28;20328;-74
2022/11/30 08:27:04;;;;;;;20.00;17.97;;;;;;;6.59;100.00;100702.56;5068619;28;20188;-75
2022/11/30 08:29:30;;;;;;;19.73;17.93;;;;;;;6.62;100.00;100706.91;5071229;28;20608;-75
2022/11/30 08:31:55;;;;;;;20.80;18.60;;;;;;;6.62;100.00;100712.06;5072242;28;20185;-74
2022/11/30 08:34:20;;;;;;;19.33;17.53;;;;;;;6.63;100.00;100706.91;5070656;28;20181;-74
2022/11/30 08:36:46;;;;;;;20.70;18.50;;;;;;;6.64;100.00;100708.66;5069104;28;20193;-75
2022/11/30 08:39:12;;;;;;;20.53;18.17;;;;;;;6.65;100.00;100715.53;5069130;28;20293;-74
2022/11/30 08:41:38;;;;;;;19.80;17.87;;;;;;;6.65;100.00;100723.25;5077726;28;20702;-75
2022/11/30 08:44:04;;;;;;;21.53;19.27;;;;;;;6.66;100.00;100717.25;5069548;28;20177;-74
2022/11/30 08:46:30;;;;;;;20.40;18.33;;;;;;;6.67;100.00;100729.28;5070601;28;20178;-75
2022/11/30 08:48:55;;;;;;;19.63;17.77;;;;;;;6.68;100.00;100727.56;5058580;28;21218;-74
2022/11/30 08:51:21;;;;;;;20.03;18.13;;;;;;;6.71;100.00;100723.34;5049004;28;20222;-75
2022/11/30 08:53:47;;;;;;;19.67;17.83;;;;;;;6.78;100.00;100723.41;5058216;28;20181;-74
2022/11/30 08:56:18;;;;;;;19.53;17.73;;;;;;;6.83;100.00;100729.50;5057546;28;20204;-75
2022/11/30 08:58:44;;;;;;;19.27;17.47;;;;;;;6.91;100.00;100727.88;5077871;28;20306;-74
2022/11/30 09:01:14;;;;;;;18.37;16.67;;;;;;;6.95;100.00;100727.06;5059072;28;20716;-74
2022/11/30 09:03:41;;;;;;;19.50;17.60;;;;;;;7.01;100.00;100734.00;5045095;28;20589;-76
2022/11/30 09:06:24;;;;;;;20.27;18.37;;;;;;;7.05;100.00;100735.78;5059291;28;20251;-74
2022/11/30 09:08:51;;;;;;;19.67;17.77;;;;;;;7.12;100.00;100735.00;5049755;28;20184;-76
2022/11/30 09:11:31;;;;;;;18.47;16.80;;;;;;;7.14;100.00;100735.03;5075731;28;20202;-74
2022/11/30 09:13:59;;;;;;;19.00;17.20;;;;;;;7.24;100.00;100741.16;5056996;28;20204;-75
2022/11/30 09:16:25;;;;;;;18.07;16.37;;;;;;;7.29;100.00;100745.53;5043707;28;20184;-74
2022/11/30 09:18:51;;;;;;;17.87;16.27;;;;;;;7.32;100.00;100745.56;5058131;28;20282;-75
2022/11/30 09:21:20;;;;;;;18.60;16.87;;;;;;;7.36;100.00;100755.88;5058055;28;20893;-74
2022/11/30 09:23:46;;;;;;;19.80;17.97;;;;;;;7.36;100.00;100759.34;5057763;28;20213;-74
2022/11/30 09:26:14;;;;;;;17.87;16.30;;;;;;;7.36;100.00;100755.88;5048516;28;20185;-73
2022/11/30 09:28:40;;;;;;;17.73;16.17;;;;;;;7.32;100.00;100760.13;5057644;28;20255;-73
2022/11/30 09:31:12;;;;;;;18.97;17.07;;;;;;;7.28;100.00;100759.25;5058608;28;20705;-73
2022/11/30 09:33:38;;;;;;;18.40;16.80;;;;;;;7.21;100.00;100757.41;5054532;28;20273;-77
2022/11/30 09:36:06;;;;;;;18.83;17.03;;;;;;;7.20;100.00;100765.97;5078856;28;20976;-73
2022/11/30 09:38:32;;;;;;;19.47;17.73;;;;;;;7.17;100.00;100763.41;5066007;28;20292;-75
2022/11/30 09:41:01;;;;;;;17.37;15.77;;;;;;;7.14;100.00;100761.63;5049608;28;20844;-74
2022/11/30 09:43:36;;;;;;;17.70;15.97;;;;;;;7.16;100.00;100769.38;5067032;28;20309;-74
2022/11/30 09:46:04;;;;;;;18.00;16.43;;;;;;;7.13;100.00;100761.63;5085620;28;20205;-73
2022/11/30 09:48:35;;;;;;;17.57;15.97;;;;;;;7.13;100.00;100764.19;5065029;28;20193;-75
2022/11/30 09:51:09;;;;;;;17.87;16.17;;;;;;;7.14;100.00;100756.47;5066666;28;20205;-76
2022/11/30 09:53:42;;;;;;;16.60;15.00;;;;;;;7.22;100.00;100755.72;5064307;28;20179;-73
2022/11/30 09:56:36;;;;;;;17.07;15.37;;;;;;;7.28;100.00;100758.34;5067947;28;20201;-74
2022/11/30 09:59:01;;;;;;;16.97;15.53;;;;;;;7.33;100.00;100760.13;5067394;28;20259;-75
2022/11/30 10:01:27;;;;;;;16.57;15.07;;;;;;;7.36;100.00;100754.19;5069658;28;20639;-73
2022/11/30 10:03:52;;;;;;;16.07;14.57;;;;;;;7.40;100.00;100748.22;5070367;28;20173;-74
2022/11/30 10:06:22;;;;;;;15.13;13.83;;;;;;;7.45;100.00;100758.56;5069837;28;20184;-74
2022/11/30 10:09:05;;;;;;;13.93;12.73;;;;;;;7.46;100.00;100756.00;5063194;28;20170;-75
2022/11/30 10:11:48;;;;;;;13.70;12.50;;;;;;;7.52;100.00;100755.22;5059556;28;20678;-75
2022/11/30 10:14:44;;;;;;;14.70;13.43;;;;;;;7.48;100.00;100753.47;5062265;28;20204;-74
2022/11/30 10:17:36;;;;;;;14.13;12.83;;;;;;;7.53;100.00;100758.66;5079742;28;20289;-73
2022/11/30 10:20:25;;;;;;;14.33;13.03;;;;;;;7.52;100.00;100754.34;5063603;28;20214;-76
2022/11/30 10:23:02;;;;;;;14.43;12.90;;;;;;;7.54;100.00;100744.94;5071717;28;20192;-76
2022/11/30 10:25:30;;;;;;;14.93;13.63;;;;;;;7.55;100.00;100742.38;5066701;28;20571;-76
2022/11/30 10:28:04;;;;;;;15.93;14.33;;;;;;;7.55;100.00;100747.53;5049089;28;20549;-76
2022/11/30 10:30:34;;;;;;;15.60;14.20;;;;;;;7.59;100.00;100738.09;5064535;28;20198;-76
2022/11/30 10:33:12;;;;;;;15.40;14.00;;;;;;;7.58;100.00;100739.84;5062076;28;20203;-75
2022/11/30 10:35:41;;;;;;;14.27;12.97;;;;;;;7.60;100.00;100745.88;5062967;28;20277;-76
2022/11/30 10:38:32;;;;;;;14.63;13.33;;;;;;;7.62;100.00;100736.44;5063580;28;20977;-75
2022/11/30 10:41:03;;;;;;;14.73;13.27;;;;;;;7.57;100.00;100730.38;5063231;28;20217;-76
2022/11/30 10:43:37;;;;;;;15.13;13.63;;;;;;;7.58;100.00;100731.22;5064733;28;20189;-75
2022/11/30 10:46:04;;;;;;;15.07;13.67;;;;;;;7.61;100.00;100733.84;5062298;28;20192;-76
2022/11/30 10:48:47;;;;;;;14.77;13.43;;;;;;;7.63;100.00;100732.16;5062234;28;20193;-75
2022/11/30 10:51:13;;;;;;;15.27;13.87;;;;;;;7.63;100.00;100729.56;5063696;28;20317;-74
2022/11/30 10:53:38;;;;;;;14.60;13.27;;;;;;;7.69;100.00;100723.63;5064032;28;20217;-74
2022/11/30 10:56:13;;;;;;;13.80;12.50;;;;;;;7.71;100.00;100721.91;5071268;28;20196;-74
2022/11/30 10:58:59;;;;;;;15.17;13.77;;;;;;;7.76;100.00;100723.69;5052725;28;20224;-73
2022/11/30 11:01:39;;;;;;;15.17;13.77;;;;;;;7.80;100.00;100716.00;5055496;28;20216;-77
2022/11/30 11:04:23;;;;;;;14.83;13.43;;;;;;;7.78;100.00;100716.84;5063984;28;20190;-76
2022/11/30 11:07:06;;;;;;;15.37;13.83;;;;;;;7.71;100.00;100715.06;5061814;28;20656;-74
2022/11/30 11:09:49;;;;;;;14.60;13.23;;;;;;;7.80;100.00;100711.69;5070521;28;20288;-77
2022/11/30 11:12:18;;;;;;;15.07;13.47;;;;;;;7.84;100.00;100710.88;5074348;28;20268;-75
2022/11/30 11:14:43;;;;;;;14.77;13.47;;;;;;;7.93;100.00;100710.09;5065603;28;20667;-73
2022/11/30 11:17:18;;;;;;;14.10;12.80;;;;;;;7.98;100.00;100708.44;5069083;28;20196;-74